sensor_id;sensor_type;location;lat;lon;timestamp;P1;durP1;ratioP1;P2;durP2;ratioP2
59054;SDS011;44845;51.444;7.460;2022-08-03T00:01:26;4.07;;;2.57;;
59054;SDS011;44845;51.444;7.460;2022-08-03T00:03:52;5.05;;;2.67;;
59054;SDS011;44845;51.444;7.460;2022-08-03T00:06:17;4.50;;;2.45;;
59054;SDS011;44845;51.444;7.460;2022-08-03T00:08:45;5.22;;;2.45;;
59054;SDS011;44845;51.444;7.460;2022-08-03T00:11:11;7.95;;;2.50;;
59054;SDS011;44845;51.444;7.460;2022-08-03T00:13:39;5.17;;;2.87;;
59054;SDS011;44845;51.444;7.460;2022-08-03T00:16:05;4.72;;;2.15;;
59054;SDS011;44845;51.444;7.460;2022-08-03T00:18:34;2.85;;;2.60;;
59054;SDS011;44845;51.444;7.460;2022-08-03T00:20:59;6.87;;;2.30;;
59054;SDS011;44845;51.444;7.460;2022-08-03T00:23:25;5.47;;;2.70;;
59054;SDS011;44845;51.444;7.460;2022-08-03T00:25:50;3.50;;;2.50;;
59054;SDS011;44845;51.444;7.460;2022-08-03T00:28:18;3.45;;;2.67;;
59054;SDS011;44845;51.444;7.460;2022-08-03T00:30:43;4.97;;;2.58;;
59054;SDS011;44845;51.444;7.460;2022-08-03T00:33:09;2.40;;;2.20;;
59054;SDS011;44845;51.444;7.460;2022-08-03T00:35:34;3.63;;;2.47;;
59054;SDS011;44845;51.444;7.460;2022-08-03T00:38:00;3.67;;;2.47;;
59054;SDS011;44845;51.444;7.460;2022-08-03T00:40:26;6.82;;;2.63;;
59054;SDS011;44845;51.444;7.460;2022-08-03T00:42:52;4.05;;;2.30;;
59054;SDS011;44845;51.444;7.460;2022-08-03T00:45:19;6.20;;;2.38;;
59054;SDS011;44845;51.444;7.460;2022-08-03T00:47:44;4.65;;;2.50;;
59054;SDS011;44845;51.444;7.460;2022-08-03T00:50:09;3.00;;;2.70;;
59054;SDS011;44845;51.444;7.460;2022-08-03T00:52:35;3.73;;;2.07;;
59054;SDS011;44845;51.444;7.460;2022-08-03T00:55:00;2.65;;;2.20;;
59054;SDS011;44845;51.444;7.460;2022-08-03T00:57:32;3.55;;;1.85;;
59054;SDS011;44845;51.444;7.460;2022-08-03T00:59:58;3.50;;;1.90;;
59054;SDS011;44845;51.444;7.460;2022-08-03T01:02:29;2.90;;;2.05;;
59054;SDS011;44845;51.444;7.460;2022-08-03T01:04:57;2.10;;;1.90;;
59054;SDS011;44845;51.444;7.460;2022-08-03T01:12:38;3.92;;;2.03;;
59054;SDS011;44845;51.444;7.460;2022-08-03T01:15:14;2.70;;;2.05;;
59054;SDS011;44845;51.444;7.460;2022-08-03T01:20:10;5.68;;;1.90;;
59054;SDS011;44845;51.444;7.460;2022-08-03T01:22:48;4.60;;;1.80;;
59054;SDS011;44845;51.444;7.460;2022-08-03T01:30:44;5.18;;;2.38;;
59054;SDS011;44845;51.444;7.460;2022-08-03T01:33:12;3.15;;;2.00;;
59054;SDS011;44845;51.444;7.460;2022-08-03T01:38:19;3.63;;;2.30;;
59054;SDS011;44845;51.444;7.460;2022-08-03T01:40:46;2.88;;;1.95;;
59054;SDS011;44845;51.444;7.460;2022-08-03T01:43:14;2.58;;;2.03;;
59054;SDS011;44845;51.444;7.460;2022-08-03T01:45:40;4.22;;;2.42;;
59054;SDS011;44845;51.444;7.460;2022-08-03T01:48:07;4.35;;;2.13;;
59054;SDS011;44845;51.444;7.460;2022-08-03T01:50:33;3.35;;;2.28;;
59054;SDS011;44845;51.444;7.460;2022-08-03T01:52:59;5.25;;;2.15;;
59054;SDS011;44845;51.444;7.460;2022-08-03T01:55:26;2.35;;;2.08;;
59054;SDS011;44845;51.444;7.460;2022-08-03T01:57:52;6.70;;;2.45;;
59054;SDS011;44845;51.444;7.460;2022-08-03T02:00:18;2.83;;;2.08;;
59054;SDS011;44845;51.444;7.460;2022-08-03T02:02:43;3.65;;;2.33;;
59054;SDS011;44845;51.444;7.460;2022-08-03T02:05:11;4.22;;;2.05;;
59054;SDS011;44845;51.444;7.460;2022-08-03T02:07:36;3.78;;;2.15;;
59054;SDS011;44845;51.444;7.460;2022-08-03T02:10:04;2.60;;;1.90;;
59054;SDS011;44845;51.444;7.460;2022-08-03T02:12:30;3.42;;;2.05;;
59054;SDS011;44845;51.444;7.460;2022-08-03T02:14:55;4.72;;;2.42;;
59054;SDS011;44845;51.444;7.460;2022-08-03T02:17:21;2.10;;;1.90;;
59054;SDS011;44845;51.444;7.460;2022-08-03T02:19:47;1.90;;;1.70;;
59054;SDS011;44845;51.444;7.460;2022-08-03T02:22:14;7.88;;;2.40;;
59054;SDS011;44845;51.444;7.460;2022-08-03T02:24:40;3.28;;;2.28;;
59054;SDS011;44845;51.444;7.460;2022-08-03T02:27:08;3.05;;;2.20;;
59054;SDS011;44845;51.444;7.460;2022-08-03T02:29:37;2.90;;;2.45;;
59054;SDS011;44845;51.444;7.460;2022-08-03T02:32:03;2.70;;;2.20;;
59054;SDS011;44845;51.444;7.460;2022-08-03T02:34:30;3.95;;;2.20;;
59054;SDS011;44845;51.444;7.460;2022-08-03T02:36:57;3.38;;;2.20;;
59054;SDS011;44845;51.444;7.460;2022-08-03T02:39:24;2.60;;;2.15;;
59054;SDS011;44845;51.444;7.460;2022-08-03T02:41:51;2.78;;;1.98;;
59054;SDS011;44845;51.444;7.460;2022-08-03T02:44:17;2.53;;;2.30;;
59054;SDS011;44845;51.444;7.460;2022-08-03T02:46:44;3.67;;;2.25;;
59054;SDS011;44845;51.444;7.460;2022-08-03T02:49:11;4.75;;;2.30;;
59054;SDS011;44845;51.444;7.460;2022-08-03T02:51:36;4.35;;;2.40;;
59054;SDS011;44845;51.444;7.460;2022-08-03T02:54:03;5.43;;;2.40;;
59054;SDS011;44845;51.444;7.460;2022-08-03T02:56:30;2.50;;;2.30;;
59054;SDS011;44845;51.444;7.460;2022-08-03T02:58:59;2.80;;;2.22;;
59054;SDS011;44845;51.444;7.460;2022-08-03T03:01:26;3.83;;;2.15;;
59054;SDS011;44845;51.444;7.460;2022-08-03T03:03:55;4.97;;;2.33;;
59054;SDS011;44845;51.444;7.460;2022-08-03T03:06:24;3.83;;;2.25;;
59054;SDS011;44845;51.444;7.460;2022-08-03T03:08:52;3.67;;;2.15;;
59054;SDS011;44845;51.444;7.460;2022-08-03T03:11:21;4.78;;;2.50;;
59054;SDS011;44845;51.444;7.460;2022-08-03T03:13:47;5.10;;;2.63;;
59054;SDS011;44845;51.444;7.460;2022-08-03T03:16:16;3.40;;;2.20;;
59054;SDS011;44845;51.444;7.460;2022-08-03T03:18:42;3.97;;;2.30;;
59054;SDS011;44845;51.444;7.460;2022-08-03T03:21:08;4.28;;;2.58;;
59054;SDS011;44845;51.444;7.460;2022-08-03T03:23:34;3.45;;;2.60;;
59054;SDS011;44845;51.444;7.460;2022-08-03T03:26:00;2.70;;;2.10;;
59054;SDS011;44845;51.444;7.460;2022-08-03T03:28:29;2.53;;;2.22;;
59054;SDS011;44845;51.444;7.460;2022-08-03T03:30:54;5.43;;;2.40;;
59054;SDS011;44845;51.444;7.460;2022-08-03T03:33:20;3.10;;;1.95;;
59054;SDS011;44845;51.444;7.460;2022-08-03T03:35:46;3.42;;;2.30;;
59054;SDS011;44845;51.444;7.460;2022-08-03T03:38:11;5.03;;;2.13;;
59054;SDS011;44845;51.444;7.460;2022-08-03T03:40:40;9.38;;;2.10;;
59054;SDS011;44845;51.444;7.460;2022-08-03T03:43:09;3.38;;;2.17;;
59054;SDS011;44845;51.444;7.460;2022-08-03T03:45:35;3.30;;;2.03;;
59054;SDS011;44845;51.444;7.460;2022-08-03T03:48:01;9.63;;;2.10;;
59054;SDS011;44845;51.444;7.460;2022-08-03T03:50:31;5.63;;;2.05;;
59054;SDS011;44845;51.444;7.460;2022-08-03T03:52:57;6.13;;;2.38;;
59054;SDS011;44845;51.444;7.460;2022-08-03T03:55:22;4.07;;;1.98;;
59054;SDS011;44845;51.444;7.460;2022-08-03T03:57:48;3.23;;;2.03;;
59054;SDS011;44845;51.444;7.460;2022-08-03T04:00:13;3.80;;;2.00;;
59054;SDS011;44845;51.444;7.460;2022-08-03T04:02:41;2.88;;;1.90;;
59054;SDS011;44845;51.444;7.460;2022-08-03T04:05:10;5.43;;;2.40;;
59054;SDS011;44845;51.444;7.460;2022-08-03T04:07:58;4.80;;;1.95;;
59054;SDS011;44845;51.444;7.460;2022-08-03T04:10:45;1.80;;;1.70;;
59054;SDS011;44845;51.444;7.460;2022-08-03T04:13:22;2.88;;;2.00;;
59054;SDS011;44845;51.444;7.460;2022-08-03T04:15:48;4.90;;;2.00;;
59054;SDS011;44845;51.444;7.460;2022-08-03T04:18:14;5.35;;;1.98;;
59054;SDS011;44845;51.444;7.460;2022-08-03T04:20:44;3.92;;;1.63;;
59054;SDS011;44845;51.444;7.460;2022-08-03T04:23:10;2.38;;;1.90;;
59054;SDS011;44845;51.444;7.460;2022-08-03T04:25:37;3.28;;;1.80;;
59054;SDS011;44845;51.444;7.460;2022-08-03T04:28:04;2.58;;;2.05;;
59054;SDS011;44845;51.444;7.460;2022-08-03T04:30:30;3.03;;;2.20;;
59054;SDS011;44845;51.444;7.460;2022-08-03T04:32:55;6.13;;;2.10;;
59054;SDS011;44845;51.444;7.460;2022-08-03T04:35:22;4.63;;;2.10;;
59054;SDS011;44845;51.444;7.460;2022-08-03T04:37:48;1.92;;;1.80;;
59054;SDS011;44845;51.444;7.460;2022-08-03T04:40:19;5.60;;;1.75;;
59054;SDS011;44845;51.444;7.460;2022-08-03T04:42:46;4.05;;;2.15;;
59054;SDS011;44845;51.444;7.460;2022-08-03T04:45:13;3.17;;;1.88;;
59054;SDS011;44845;51.444;7.460;2022-08-03T04:47:39;2.85;;;1.88;;
59054;SDS011;44845;51.444;7.460;2022-08-03T04:50:05;2.17;;;1.98;;
59054;SDS011;44845;51.444;7.460;2022-08-03T04:52:31;3.08;;;2.03;;
59054;SDS011;44845;51.444;7.460;2022-08-03T04:54:57;2.97;;;1.95;;
59054;SDS011;44845;51.444;7.460;2022-08-03T04:57:23;2.97;;;2.10;;
59054;SDS011;44845;51.444;7.460;2022-08-03T04:59:48;6.43;;;2.13;;
59054;SDS011;44845;51.444;7.460;2022-08-03T05:02:17;2.97;;;2.15;;
59054;SDS011;44845;51.444;7.460;2022-08-03T05:04:42;2.80;;;2.00;;
59054;SDS011;44845;51.444;7.460;2022-08-03T05:07:10;4.07;;;2.10;;
59054;SDS011;44845;51.444;7.460;2022-08-03T05:09:36;2.97;;;1.92;;
59054;SDS011;44845;51.444;7.460;2022-08-03T05:12:02;3.63;;;2.20;;
59054;SDS011;44845;51.444;7.460;2022-08-03T05:14:31;4.57;;;2.03;;
59054;SDS011;44845;51.444;7.460;2022-08-03T05:16:57;3.67;;;2.03;;
59054;SDS011;44845;51.444;7.460;2022-08-03T05:19:22;3.92;;;2.00;;
59054;SDS011;44845;51.444;7.460;2022-08-03T05:21:51;3.88;;;2.10;;
59054;SDS011;44845;51.444;7.460;2022-08-03T05:24:16;3.17;;;2.13;;
59054;SDS011;44845;51.444;7.460;2022-08-03T05:26:41;5.57;;;2.07;;
59054;SDS011;44845;51.444;7.460;2022-08-03T05:29:06;5.97;;;1.67;;
59054;SDS011;44845;51.444;7.460;2022-08-03T05:31:31;2.90;;;1.80;;
59054;SDS011;44845;51.444;7.460;2022-08-03T05:33:57;5.20;;;2.40;;
59054;SDS011;44845;51.444;7.460;2022-08-03T05:36:22;6.67;;;2.07;;
59054;SDS011;44845;51.444;7.460;2022-08-03T05:38:47;5.93;;;2.37;;
59054;SDS011;44845;51.444;7.460;2022-08-03T05:41:13;6.03;;;2.20;;
59054;SDS011;44845;51.444;7.460;2022-08-03T05:43:38;8.05;;;2.08;;
59054;SDS011;44845;51.444;7.460;2022-08-03T05:46:04;5.20;;;2.00;;
59054;SDS011;44845;51.444;7.460;2022-08-03T05:48:29;3.58;;;1.52;;
59054;SDS011;44845;51.444;7.460;2022-08-03T05:50:57;2.13;;;1.60;;
59054;SDS011;44845;51.444;7.460;2022-08-03T05:53:22;3.67;;;1.70;;
59054;SDS011;44845;51.444;7.460;2022-08-03T05:55:47;5.10;;;1.83;;
59054;SDS011;44845;51.444;7.460;2022-08-03T05:58:13;4.30;;;1.80;;
59054;SDS011;44845;51.444;7.460;2022-08-03T06:00:41;1.73;;;1.50;;
59054;SDS011;44845;51.444;7.460;2022-08-03T06:03:09;2.67;;;1.50;;
59054;SDS011;44845;51.444;7.460;2022-08-03T06:05:34;3.13;;;1.85;;
59054;SDS011;44845;51.444;7.460;2022-08-03T06:08:03;1.58;;;1.33;;
59054;SDS011;44845;51.444;7.460;2022-08-03T06:10:29;3.95;;;1.52;;
59054;SDS011;44845;51.444;7.460;2022-08-03T06:13:03;4.50;;;2.17;;
59054;SDS011;44845;51.444;7.460;2022-08-03T06:15:28;2.28;;;1.83;;
59054;SDS011;44845;51.444;7.460;2022-08-03T06:17:54;3.92;;;1.85;;
59054;SDS011;44845;51.444;7.460;2022-08-03T06:20:21;5.72;;;2.33;;
59054;SDS011;44845;51.444;7.460;2022-08-03T06:22:46;2.25;;;1.60;;
59054;SDS011;44845;51.444;7.460;2022-08-03T06:25:12;2.80;;;2.10;;
59054;SDS011;44845;51.444;7.460;2022-08-03T06:27:37;2.85;;;1.42;;
59054;SDS011;44845;51.444;7.460;2022-08-03T06:30:07;3.70;;;1.60;;
59054;SDS011;44845;51.444;7.460;2022-08-03T06:32:42;4.68;;;1.77;;
59054;SDS011;44845;51.444;7.460;2022-08-03T06:35:07;6.72;;;2.03;;
59054;SDS011;44845;51.444;7.460;2022-08-03T06:40:08;2.10;;;1.70;;
59054;SDS011;44845;51.444;7.460;2022-08-03T06:42:33;6.53;;;1.98;;
59054;SDS011;44845;51.444;7.460;2022-08-03T06:44:58;2.40;;;1.80;;
59054;SDS011;44845;51.444;7.460;2022-08-03T06:47:24;6.43;;;2.33;;
59054;SDS011;44845;51.444;7.460;2022-08-03T06:49:49;5.80;;;1.60;;
59054;SDS011;44845;51.444;7.460;2022-08-03T06:52:17;4.40;;;1.70;;
59054;SDS011;44845;51.444;7.460;2022-08-03T06:54:43;1.77;;;1.52;;
59054;SDS011;44845;51.444;7.460;2022-08-03T06:57:08;2.70;;;1.70;;
59054;SDS011;44845;51.444;7.460;2022-08-03T06:59:35;3.35;;;1.90;;
59054;SDS011;44845;51.444;7.460;2022-08-03T07:02:01;5.80;;;1.90;;
59054;SDS011;44845;51.444;7.460;2022-08-03T07:04:36;4.93;;;1.95;;
59054;SDS011;44845;51.444;7.460;2022-08-03T07:07:01;4.53;;;1.73;;
59054;SDS011;44845;51.444;7.460;2022-08-03T07:09:26;3.95;;;1.63;;
59054;SDS011;44845;51.444;7.460;2022-08-03T07:11:52;2.88;;;1.40;;
59054;SDS011;44845;51.444;7.460;2022-08-03T07:14:17;4.57;;;1.60;;
59054;SDS011;44845;51.444;7.460;2022-08-03T07:16:42;4.72;;;1.70;;
59054;SDS011;44845;51.444;7.460;2022-08-03T07:19:08;6.17;;;1.50;;
59054;SDS011;44845;51.444;7.460;2022-08-03T07:21:33;5.50;;;1.65;;
59054;SDS011;44845;51.444;7.460;2022-08-03T07:23:58;2.27;;;1.57;;
59054;SDS011;44845;51.444;7.460;2022-08-03T07:26:24;4.27;;;1.77;;
59054;SDS011;44845;51.444;7.460;2022-08-03T07:28:49;5.13;;;1.75;;
59054;SDS011;44845;51.444;7.460;2022-08-03T07:31:14;3.50;;;1.90;;
59054;SDS011;44845;51.444;7.460;2022-08-03T07:33:43;4.68;;;2.05;;
59054;SDS011;44845;51.444;7.460;2022-08-03T07:36:08;5.78;;;1.85;;
59054;SDS011;44845;51.444;7.460;2022-08-03T07:38:34;4.60;;;2.05;;
59054;SDS011;44845;51.444;7.460;2022-08-03T07:41:01;4.75;;;1.70;;
59054;SDS011;44845;51.444;7.460;2022-08-03T07:43:27;2.88;;;1.70;;
59054;SDS011;44845;51.444;7.460;2022-08-03T07:45:53;2.83;;;1.48;;
59054;SDS011;44845;51.444;7.460;2022-08-03T07:48:18;4.07;;;2.08;;
59054;SDS011;44845;51.444;7.460;2022-08-03T07:50:44;2.88;;;1.52;;
59054;SDS011;44845;51.444;7.460;2022-08-03T07:53:12;4.18;;;1.60;;
59054;SDS011;44845;51.444;7.460;2022-08-03T07:55:38;3.88;;;2.00;;
59054;SDS011;44845;51.444;7.460;2022-08-03T07:58:07;3.00;;;1.37;;
59054;SDS011;44845;51.444;7.460;2022-08-03T08:00:33;2.60;;;1.60;;
59054;SDS011;44845;51.444;7.460;2022-08-03T08:02:59;4.22;;;1.48;;
59054;SDS011;44845;51.444;7.460;2022-08-03T08:05:24;3.47;;;1.70;;
59054;SDS011;44845;51.444;7.460;2022-08-03T08:07:50;4.55;;;1.48;;
59054;SDS011;44845;51.444;7.460;2022-08-03T08:10:15;4.43;;;1.63;;
59054;SDS011;44845;51.444;7.460;2022-08-03T08:12:41;3.53;;;1.67;;
59054;SDS011;44845;51.444;7.460;2022-08-03T08:15:09;4.43;;;1.33;;
59054;SDS011;44845;51.444;7.460;2022-08-03T08:17:41;3.95;;;1.60;;
59054;SDS011;44845;51.444;7.460;2022-08-03T08:20:08;1.27;;;1.08;;
59054;SDS011;44845;51.444;7.460;2022-08-03T08:22:35;5.85;;;1.42;;
59054;SDS011;44845;51.444;7.460;2022-08-03T08:25:02;4.45;;;1.42;;
59054;SDS011;44845;51.444;7.460;2022-08-03T08:27:27;2.05;;;1.35;;
59054;SDS011;44845;51.444;7.460;2022-08-03T08:29:53;2.45;;;1.40;;
59054;SDS011;44845;51.444;7.460;2022-08-03T08:32:18;5.32;;;1.50;;
59054;SDS011;44845;51.444;7.460;2022-08-03T08:34:43;5.77;;;1.80;;
59054;SDS011;44845;51.444;7.460;2022-08-03T08:37:08;3.53;;;1.10;;
59054;SDS011;44845;51.444;7.460;2022-08-03T08:39:33;4.57;;;1.37;;
59054;SDS011;44845;51.444;7.460;2022-08-03T08:41:59;2.42;;;1.20;;
59054;SDS011;44845;51.444;7.460;2022-08-03T08:44:24;2.17;;;1.25;;
59054;SDS011;44845;51.444;7.460;2022-08-03T08:46:50;2.20;;;1.42;;
59054;SDS011;44845;51.444;7.460;2022-08-03T08:49:17;2.17;;;1.40;;
59054;SDS011;44845;51.444;7.460;2022-08-03T08:51:47;2.28;;;1.65;;
59054;SDS011;44845;51.444;7.460;2022-08-03T08:54:13;2.55;;;1.45;;
59054;SDS011;44845;51.444;7.460;2022-08-03T08:56:39;3.28;;;1.60;;
59054;SDS011;44845;51.444;7.460;2022-08-03T08:59:04;1.30;;;1.20;;
59054;SDS011;44845;51.444;7.460;2022-08-03T09:01:30;2.55;;;1.50;;
59054;SDS011;44845;51.444;7.460;2022-08-03T09:03:55;1.90;;;1.70;;
59054;SDS011;44845;51.444;7.460;2022-08-03T09:06:21;2.47;;;1.67;;
59054;SDS011;44845;51.444;7.460;2022-08-03T09:08:46;5.85;;;1.80;;
59054;SDS011;44845;51.444;7.460;2022-08-03T09:11:11;4.93;;;1.75;;
59054;SDS011;44845;51.444;7.460;2022-08-03T09:13:37;4.00;;;2.00;;
59054;SDS011;44845;51.444;7.460;2022-08-03T09:18:37;3.67;;;2.00;;
59054;SDS011;44845;51.444;7.460;2022-08-03T09:21:13;3.90;;;1.80;;
59054;SDS011;44845;51.444;7.460;2022-08-03T09:24:01;3.28;;;2.10;;
59054;SDS011;44845;51.444;7.460;2022-08-03T09:26:28;6.53;;;2.00;;
59054;SDS011;44845;51.444;7.460;2022-08-03T09:28:57;2.58;;;2.33;;
59054;SDS011;44845;51.444;7.460;2022-08-03T09:33:54;2.47;;;1.90;;
59054;SDS011;44845;51.444;7.460;2022-08-03T09:36:36;3.78;;;2.05;;
59054;SDS011;44845;51.444;7.460;2022-08-03T09:39:03;3.95;;;2.33;;
59054;SDS011;44845;51.444;7.460;2022-08-03T09:41:30;3.38;;;2.38;;
59054;SDS011;44845;51.444;7.460;2022-08-03T09:43:56;4.10;;;2.25;;
59054;SDS011;44845;51.444;7.460;2022-08-03T09:46:21;6.07;;;2.45;;
59054;SDS011;44845;51.444;7.460;2022-08-03T09:48:46;3.60;;;2.40;;
59054;SDS011;44845;51.444;7.460;2022-08-03T09:51:12;3.92;;;2.53;;
59054;SDS011;44845;51.444;7.460;2022-08-03T09:53:42;3.60;;;2.17;;
59054;SDS011;44845;51.444;7.460;2022-08-03T09:56:08;5.00;;;2.08;;
59054;SDS011;44845;51.444;7.460;2022-08-03T09:58:33;4.60;;;2.07;;
59054;SDS011;44845;51.444;7.460;2022-08-03T10:01:08;5.18;;;2.22;;
59054;SDS011;44845;51.444;7.460;2022-08-03T10:03:34;2.75;;;1.77;;
59054;SDS011;44845;51.444;7.460;2022-08-03T10:06:14;2.00;;;1.80;;
59054;SDS011;44845;51.444;7.460;2022-08-03T10:08:39;2.30;;;1.90;;
59054;SDS011;44845;51.444;7.460;2022-08-03T10:11:04;5.43;;;1.70;;
59054;SDS011;44845;51.444;7.460;2022-08-03T10:13:30;3.50;;;1.60;;
59054;SDS011;44845;51.444;7.460;2022-08-03T10:15:55;3.15;;;1.90;;
59054;SDS011;44845;51.444;7.460;2022-08-03T10:18:20;3.37;;;1.87;;
59054;SDS011;44845;51.444;7.460;2022-08-03T10:20:50;5.10;;;1.70;;
59054;SDS011;44845;51.444;7.460;2022-08-03T10:23:17;5.05;;;2.13;;
59054;SDS011;44845;51.444;7.460;2022-08-03T10:25:44;3.63;;;2.13;;
59054;SDS011;44845;51.444;7.460;2022-08-03T10:28:12;3.67;;;1.85;;
59054;SDS011;44845;51.444;7.460;2022-08-03T10:30:40;5.18;;;1.98;;
59054;SDS011;44845;51.444;7.460;2022-08-03T10:33:12;6.22;;;1.92;;
59054;SDS011;44845;51.444;7.460;2022-08-03T10:35:38;7.10;;;2.00;;
59054;SDS011;44845;51.444;7.460;2022-08-03T10:38:09;1.90;;;1.75;;
59054;SDS011;44845;51.444;7.460;2022-08-03T10:40:36;3.08;;;2.25;;
59054;SDS011;44845;51.444;7.460;2022-08-03T10:43:09;4.43;;;1.60;;
59054;SDS011;44845;51.444;7.460;2022-08-03T10:45:36;5.55;;;2.10;;
59054;SDS011;44845;51.444;7.460;2022-08-03T10:48:05;5.03;;;2.30;;
59054;SDS011;44845;51.444;7.460;2022-08-03T10:50:31;2.95;;;2.10;;
59054;SDS011;44845;51.444;7.460;2022-08-03T10:52:58;6.47;;;2.83;;
59054;SDS011;44845;51.444;7.460;2022-08-03T10:55:44;5.75;;;2.13;;
59054;SDS011;44845;51.444;7.460;2022-08-03T11:01:13;3.75;;;1.70;;
59054;SDS011;44845;51.444;7.460;2022-08-03T11:06:19;2.58;;;2.00;;
59054;SDS011;44845;51.444;7.460;2022-08-03T11:08:44;3.88;;;1.60;;
59054;SDS011;44845;51.444;7.460;2022-08-03T11:16:27;2.55;;;1.70;;
59054;SDS011;44845;51.444;7.460;2022-08-03T11:19:02;3.22;;;1.65;;
59054;SDS011;44845;51.444;7.460;2022-08-03T11:37:32;3.80;;;1.50;;
59054;SDS011;44845;51.444;7.460;2022-08-03T11:39:58;4.20;;;1.52;;
59054;SDS011;44845;51.444;7.460;2022-08-03T11:44:50;2.28;;;1.38;;
59054;SDS011;44845;51.444;7.460;2022-08-03T11:47:16;4.15;;;1.42;;
59054;SDS011;44845;51.444;7.460;2022-08-03T11:49:48;3.63;;;1.75;;
59054;SDS011;44845;51.444;7.460;2022-08-03T11:52:15;3.47;;;1.92;;
59054;SDS011;44845;51.444;7.460;2022-08-03T11:54:40;6.25;;;1.60;;
59054;SDS011;44845;51.444;7.460;2022-08-03T11:57:07;2.63;;;1.35;;
59054;SDS011;44845;51.444;7.460;2022-08-03T11:59:33;2.83;;;1.20;;
59054;SDS011;44845;51.444;7.460;2022-08-03T12:02:11;4.18;;;1.50;;
59054;SDS011;44845;51.444;7.460;2022-08-03T12:07:18;3.47;;;1.45;;
59054;SDS011;44845;51.444;7.460;2022-08-03T12:10:03;4.90;;;1.60;;
59054;SDS011;44845;51.444;7.460;2022-08-03T12:12:28;5.00;;;1.75;;
59054;SDS011;44845;51.444;7.460;2022-08-03T12:14:54;4.63;;;1.47;;
59054;SDS011;44845;51.444;7.460;2022-08-03T12:17:19;4.85;;;1.58;;
59054;SDS011;44845;51.444;7.460;2022-08-03T12:19:44;4.40;;;1.50;;
59054;SDS011;44845;51.444;7.460;2022-08-03T12:22:09;3.23;;;1.57;;
59054;SDS011;44845;51.444;7.460;2022-08-03T12:24:41;3.33;;;1.40;;
59054;SDS011;44845;51.444;7.460;2022-08-03T12:27:07;6.53;;;1.42;;
59054;SDS011;44845;51.444;7.460;2022-08-03T12:29:32;4.87;;;1.70;;
59054;SDS011;44845;51.444;7.460;2022-08-03T12:31:57;4.50;;;1.20;;
59054;SDS011;44845;51.444;7.460;2022-08-03T12:34:22;3.30;;;1.30;;
59054;SDS011;44845;51.444;7.460;2022-08-03T12:36:52;2.23;;;1.10;;
59054;SDS011;44845;51.444;7.460;2022-08-03T12:39:21;3.70;;;1.42;;
59054;SDS011;44845;51.444;7.460;2022-08-03T12:41:51;6.50;;;1.58;;
59054;SDS011;44845;51.444;7.460;2022-08-03T12:44:16;5.05;;;1.45;;
59054;SDS011;44845;51.444;7.460;2022-08-03T12:46:42;4.00;;;1.42;;
59054;SDS011;44845;51.444;7.460;2022-08-03T12:49:11;1.52;;;0.93;;
59054;SDS011;44845;51.444;7.460;2022-08-03T12:54:07;6.95;;;1.27;;
59054;SDS011;44845;51.444;7.460;2022-08-03T12:56:33;3.97;;;1.10;;
59054;SDS011;44845;51.444;7.460;2022-08-03T12:58:58;6.50;;;1.73;;
59054;SDS011;44845;51.444;7.460;2022-08-03T13:01:24;5.85;;;1.42;;
59054;SDS011;44845;51.444;7.460;2022-08-03T13:03:52;6.15;;;1.20;;
59054;SDS011;44845;51.444;7.460;2022-08-03T13:06:19;6.97;;;1.17;;
59054;SDS011;44845;51.444;7.460;2022-08-03T13:08:45;3.85;;;1.23;;
59054;SDS011;44845;51.444;7.460;2022-08-03T13:13:44;3.80;;;1.33;;
59054;SDS011;44845;51.444;7.460;2022-08-03T13:16:09;9.63;;;1.95;;
59054;SDS011;44845;51.444;7.460;2022-08-03T13:18:35;7.07;;;1.20;;
59054;SDS011;44845;51.444;7.460;2022-08-03T13:21:00;3.83;;;1.23;;
59054;SDS011;44845;51.444;7.460;2022-08-03T13:23:25;5.67;;;1.47;;
59054;SDS011;44845;51.444;7.460;2022-08-03T13:25:50;3.63;;;0.90;;
59054;SDS011;44845;51.444;7.460;2022-08-03T13:28:16;8.13;;;1.20;;
59054;SDS011;44845;51.444;7.460;2022-08-03T13:30:41;4.88;;;1.17;;
59054;SDS011;44845;51.444;7.460;2022-08-03T13:33:07;6.47;;;1.38;;
59054;SDS011;44845;51.444;7.460;2022-08-03T13:35:32;6.20;;;1.23;;
59054;SDS011;44845;51.444;7.460;2022-08-03T13:37:57;6.10;;;1.50;;
59054;SDS011;44845;51.444;7.460;2022-08-03T13:40:23;2.20;;;1.03;;
59054;SDS011;44845;51.444;7.460;2022-08-03T13:42:48;4.30;;;1.33;;
59054;SDS011;44845;51.444;7.460;2022-08-03T13:45:13;4.38;;;1.38;;
59054;SDS011;44845;51.444;7.460;2022-08-03T13:47:38;4.57;;;1.10;;
59054;SDS011;44845;51.444;7.460;2022-08-03T13:50:04;3.03;;;1.27;;
59054;SDS011;44845;51.444;7.460;2022-08-03T13:52:30;1.85;;;1.00;;
59054;SDS011;44845;51.444;7.460;2022-08-03T13:54:55;5.63;;;1.35;;
59054;SDS011;44845;51.444;7.460;2022-08-03T13:57:20;4.27;;;1.00;;
59054;SDS011;44845;51.444;7.460;2022-08-03T13:59:46;2.63;;;0.93;;
59054;SDS011;44845;51.444;7.460;2022-08-03T14:02:11;6.13;;;1.30;;
59054;SDS011;44845;51.444;7.460;2022-08-03T14:04:36;5.85;;;0.95;;
59054;SDS011;44845;51.444;7.460;2022-08-03T14:07:02;2.40;;;1.35;;
59054;SDS011;44845;51.444;7.460;2022-08-03T14:09:27;2.83;;;1.25;;
59054;SDS011;44845;51.444;7.460;2022-08-03T14:11:53;5.32;;;1.05;;
59054;SDS011;44845;51.444;7.460;2022-08-03T14:14:18;3.00;;;0.95;;
59054;SDS011;44845;51.444;7.460;2022-08-03T14:16:44;2.83;;;1.08;;
59054;SDS011;44845;51.444;7.460;2022-08-03T14:19:09;2.93;;;0.93;;
59054;SDS011;44845;51.444;7.460;2022-08-03T14:21:35;5.23;;;1.20;;
59054;SDS011;44845;51.444;7.460;2022-08-03T14:24:00;3.47;;;0.93;;
59054;SDS011;44845;51.444;7.460;2022-08-03T14:26:25;1.60;;;0.75;;
59054;SDS011;44845;51.444;7.460;2022-08-03T14:28:51;2.75;;;1.10;;
59054;SDS011;44845;51.444;7.460;2022-08-03T14:31:16;2.97;;;1.10;;
59054;SDS011;44845;51.444;7.460;2022-08-03T14:33:42;4.75;;;0.93;;
59054;SDS011;44845;51.444;7.460;2022-08-03T14:36:07;3.75;;;1.00;;
59054;SDS011;44845;51.444;7.460;2022-08-03T14:38:32;4.90;;;1.27;;
59054;SDS011;44845;51.444;7.460;2022-08-03T14:40:58;7.15;;;1.10;;
59054;SDS011;44845;51.444;7.460;2022-08-03T14:43:23;5.40;;;1.20;;
59054;SDS011;44845;51.444;7.460;2022-08-03T14:45:49;2.20;;;0.90;;
59054;SDS011;44845;51.444;7.460;2022-08-03T14:48:21;4.63;;;1.05;;
59054;SDS011;44845;51.444;7.460;2022-08-03T14:50:46;5.15;;;1.10;;
59054;SDS011;44845;51.444;7.460;2022-08-03T14:53:11;5.40;;;1.10;;
59054;SDS011;44845;51.444;7.460;2022-08-03T14:55:36;4.43;;;1.20;;
59054;SDS011;44845;51.444;7.460;2022-08-03T14:58:02;5.13;;;1.10;;
59054;SDS011;44845;51.444;7.460;2022-08-03T15:00:32;3.28;;;0.90;;
59054;SDS011;44845;51.444;7.460;2022-08-03T15:02:57;2.67;;;1.10;;
59054;SDS011;44845;51.444;7.460;2022-08-03T15:05:23;4.93;;;1.00;;
59054;SDS011;44845;51.444;7.460;2022-08-03T15:07:49;4.40;;;1.23;;
59054;SDS011;44845;51.444;7.460;2022-08-03T15:10:14;3.00;;;1.10;;
59054;SDS011;44845;51.444;7.460;2022-08-03T15:12:39;3.55;;;0.80;;
59054;SDS011;44845;51.444;7.460;2022-08-03T15:15:05;4.72;;;1.15;;
59054;SDS011;44845;51.444;7.460;2022-08-03T15:17:30;5.75;;;0.90;;
59054;SDS011;44845;51.444;7.460;2022-08-03T15:19:55;3.97;;;0.90;;
59054;SDS011;44845;51.444;7.460;2022-08-03T15:22:21;4.40;;;1.07;;
59054;SDS011;44845;51.444;7.460;2022-08-03T15:24:46;2.47;;;0.90;;
59054;SDS011;44845;51.444;7.460;2022-08-03T15:27:11;4.70;;;1.20;;
59054;SDS011;44845;51.444;7.460;2022-08-03T15:29:36;1.77;;;1.20;;
59054;SDS011;44845;51.444;7.460;2022-08-03T15:32:02;9.20;;;1.23;;
59054;SDS011;44845;51.444;7.460;2022-08-03T15:34:27;4.97;;;0.97;;
59054;SDS011;44845;51.444;7.460;2022-08-03T15:36:52;4.00;;;1.17;;
59054;SDS011;44845;51.444;7.460;2022-08-03T15:39:17;5.63;;;1.10;;
59054;SDS011;44845;51.444;7.460;2022-08-03T15:41:43;2.95;;;1.00;;
59054;SDS011;44845;51.444;7.460;2022-08-03T15:44:09;4.22;;;0.90;;
59054;SDS011;44845;51.444;7.460;2022-08-03T15:46:34;2.33;;;0.95;;